Time;durP1;ratioP1;P1;durP2;ratioP2;P2;SDS_P1;SDS_P2;PMS_P1;PMS_P2;Temp;Humidity;BMP_temperature;BMP_pressure;BME280_temperature;BME280_humidity;BME280_pressure;Samples;Min_cycle;Max_cycle;Signal;HPM_P1;HPM_P2
2022/03/14 00:00:30;;;;;;;13.70;8.98;;;6.90;81.50;;;;;;5033340;28;20210;-90
2022/03/14 00:03:02;;;;;;;11.95;9.32;;;6.90;82.20;;;;;;5034675;28;20636;-90
2022/03/14 00:05:31;;;;;;;17.63;9.93;;;6.90;82.90;;;;;;5035001;28;20226;-90
2022/03/14 00:08:01;;;;;;;12.05;9.00;;;6.80;82.60;;;;;;5036845;28;20225;-89
2022/03/14 00:10:28;;;;;;;12.60;9.15;;;6.80;83.40;;;;;;5033717;28;20690;-90
2022/03/14 00:12:58;;;;;;;13.02;9.80;;;6.80;84.00;;;;;;5031600;28;20220;-90
2022/03/14 00:15:29;;;;;;;11.57;8.82;;;6.80;83.00;;;;;;5031463;28;20198;-90
2022/03/14 00:17:56;;;;;;;11.48;8.80;;;6.80;83.00;;;;;;5031190;28;20241;-90
2022/03/14 00:20:24;;;;;;;11.50;8.27;;;6.90;82.50;;;;;;5031270;28;20212;-89
2022/03/14 00:22:51;;;;;;;12.80;8.73;;;6.80;82.80;;;;;;5031739;28;20206;-90
2022/03/14 00:25:18;;;;;;;13.68;8.45;;;6.80;83.00;;;;;;5031461;28;20592;-90
2022/03/14 00:27:44;;;;;;;10.35;7.85;;;6.80;83.00;;;;;;5031283;28;20288;-90
2022/03/14 00:30:14;;;;;;;11.77;9.20;;;6.90;82.40;;;;;;5031591;28;20205;-90
2022/03/14 00:32:41;;;;;;;13.32;9.70;;;7.00;83.20;;;;;;5031679;28;20646;-90
2022/03/14 00:35:09;;;;;;;13.77;9.65;;;7.00;83.00;;;;;;5030836;28;20194;-89
2022/03/14 00:37:36;;;;;;;14.20;10.10;;;7.00;83.10;;;;;;5031311;28;20253;-90
2022/03/14 00:40:07;;;;;;;11.48;9.68;;;7.00;82.90;;;;;;5031379;28;20293;-89
2022/03/14 00:42:33;;;;;;;10.88;9.02;;;7.10;82.90;;;;;;5031231;28;20210;-90
2022/03/14 00:45:00;;;;;;;12.73;10.15;;;7.20;81.90;;;;;;5031896;28;20228;-90
2022/03/14 00:47:29;;;;;;;11.75;8.82;;;7.30;81.40;;;;;;5031276;28;20218;-90
2022/03/14 00:49:55;;;;;;;13.35;9.63;;;7.30;81.70;;;;;;5031453;28;20202;-89
2022/03/14 00:52:22;;;;;;;12.52;8.93;;;7.30;80.50;;;;;;5030876;28;20198;-90
2022/03/14 00:54:49;;;;;;;11.18;9.05;;;7.40;80.60;;;;;;5031636;28;20292;-92
2022/03/14 00:57:16;;;;;;;12.15;9.27;;;7.40;80.30;;;;;;5031191;28;20594;-90
2022/03/14 00:59:42;;;;;;;12.60;9.43;;;7.50;80.60;;;;;;5032267;28;20210;-91
2022/03/14 01:02:10;;;;;;;13.25;9.93;;;7.60;81.10;;;;;;5032235;28;20209;-89
2022/03/14 01:04:38;;;;;;;13.45;9.27;;;7.60;81.60;;;;;;5031916;28;20241;-90
2022/03/14 01:07:05;;;;;;;12.02;9.18;;;7.70;79.40;;;;;;5031518;28;20300;-89
2022/03/14 01:09:33;;;;;;;12.15;9.05;;;7.80;79.80;;;;;;5033491;28;20232;-90
2022/03/14 01:12:00;;;;;;;10.80;8.80;;;7.80;79.80;;;;;;5035599;28;20651;-90
2022/03/14 01:14:27;;;;;;;14.88;10.73;;;7.90;79.20;;;;;;5035225;28;20618;-90
2022/03/14 01:16:54;;;;;;;14.30;10.73;;;8.10;78.60;;;;;;5035326;28;20462;-90
2022/03/14 01:19:21;;;;;;;15.23;11.15;;;8.20;79.50;;;;;;5035372;28;20229;-90
2022/03/14 01:21:50;;;;;;;18.33;12.15;;;8.40;82.70;;;;;;5035021;28;20206;-91
2022/03/14 01:24:17;;;;;;;16.77;12.50;;;8.60;85.20;;;;;;5035244;28;20208;-91
2022/03/14 01:26:44;;;;;;;14.55;12.50;;;8.70;87.60;;;;;;5034775;28;20225;-88
2022/03/14 01:29:11;;;;;;;17.27;12.55;;;8.90;88.90;;;;;;5035296;28;20205;-90
2022/03/14 01:31:38;;;;;;;14.77;12.05;;;9.00;90.30;;;;;;5035638;28;20210;-90
2022/03/14 01:34:05;;;;;;;15.95;12.07;;;9.00;90.30;;;;;;5035740;28;20648;-90
2022/03/14 01:36:32;;;;;;;15.15;11.25;;;9.10;90.30;;;;;;5035046;28;20221;-90
2022/03/14 01:39:00;;;;;;;16.50;12.13;;;9.10;89.30;;;;;;5035899;28;20239;-89
2022/03/14 01:41:28;;;;;;;15.90;11.90;;;9.20;88.70;;;;;;5035799;28;20198;-90
2022/03/14 01:43:55;;;;;;;16.75;11.93;;;9.10;88.20;;;;;;5037765;28;20208;-90
2022/03/14 01:46:23;;;;;;;15.30;11.73;;;9.10;88.30;;;;;;5041138;28;20225;-91
2022/03/14 01:48:51;;;;;;;15.25;11.38;;;9.10;86.70;;;;;;5056399;28;20193;-89
2022/03/14 01:51:18;;;;;;;15.70;11.45;;;9.10;84.50;;;;;;5036450;28;20205;-89
2022/03/14 01:53:45;;;;;;;13.52;10.73;;;9.10;85.00;;;;;;5035819;28;20209;-90
2022/03/14 01:56:14;;;;;;;16.15;11.82;;;9.10;85.20;;;;;;5036101;28;20209;-90
2022/03/14 01:58:41;;;;;;;14.25;10.85;;;9.10;85.10;;;;;;5036195;28;20213;-89
2022/03/14 02:01:08;;;;;;;17.05;12.13;;;9.10;85.70;;;;;;5037392;28;20206;-90
2022/03/14 02:03:34;;;;;;;13.88;11.73;;;9.00;85.90;;;;;;5036631;28;20201;-90
2022/03/14 02:06:01;;;;;;;14.98;11.50;;;9.00;86.60;;;;;;5037742;28;20226;-90
2022/03/14 02:08:28;;;;;;;15.02;11.23;;;9.00;87.10;;;;;;5038825;28;20205;-90
2022/03/14 02:10:54;;;;;;;17.92;11.35;;;9.00;87.20;;;;;;5042189;28;20202;-88
2022/03/14 02:13:24;;;;;;;16.00;12.10;;;9.00;88.10;;;;;;5043301;28;20201;-90
2022/03/14 02:15:50;;;;;;;16.80;12.95;;;8.90;88.90;;;;;;5055627;28;20216;-90
2022/03/14 02:18:17;;;;;;;15.85;12.63;;;8.90;90.10;;;;;;5035399;28;20244;-90
2022/03/14 02:20:46;;;;;;;13.55;11.50;;;8.90;90.60;;;;;;5033790;28;20221;-90
2022/03/14 02:23:13;;;;;;;14.15;11.60;;;9.00;91.20;;;;;;5034029;28;20309;-90
2022/03/14 02:25:47;;;;;;;13.50;11.85;;;9.00;91.20;;;;;;5033375;28;20225;-90
2022/03/14 02:28:15;;;;;;;14.10;11.73;;;9.00;92.40;;;;;;5033591;28;20256;-89
2022/03/14 02:30:42;;;;;;;13.02;10.30;;;9.00;92.80;;;;;;5034487;28;20232;-89
2022/03/14 02:33:09;;;;;;;13.60;10.68;;;9.00;93.00;;;;;;5033950;28;20213;-90
2022/03/14 02:35:48;;;;;;;11.40;9.90;;;9.10;93.70;;;;;;5033677;28;20208;-90
2022/03/14 02:38:19;;;;;;;11.40;9.60;;;9.00;94.00;;;;;;5033879;28;20259;-90
2022/03/14 02:40:47;;;;;;;11.52;9.20;;;9.10;94.60;;;;;;5036356;28;20232;-90
2022/03/14 02:43:15;;;;;;;10.77;8.52;;;9.20;95.10;;;;;;5038331;28;20221;-92
2022/03/14 02:45:43;;;;;;;13.88;9.00;;;9.20;96.00;;;;;;5034820;28;20221;-91
2022/03/14 02:48:10;;;;;;;10.55;9.32;;;9.20;96.80;;;;;;5033116;28;20272;-89
2022/03/14 02:50:42;;;;;;;10.30;8.60;;;9.20;97.60;;;;;;5033332;28;20205;-90
2022/03/14 02:53:09;;;;;;;13.95;9.70;;;9.10;98.30;;;;;;5033569;28;20300;-90
2022/03/14 02:55:38;;;;;;;14.65;10.75;;;9.10;99.60;;;;;;5032887;28;20233;-90
2022/03/14 02:58:05;;;;;;;12.82;10.25;;;9.00;99.90;;;;;;5033173;28;20644;-90
2022/03/14 03:00:32;;;;;;;17.65;10.65;;;8.90;99.90;;;;;;5033026;28;20201;-90
2022/03/14 03:02:59;;;;;;;16.08;12.57;;;8.80;99.90;;;;;;5033298;28;20209;-89
2022/03/14 03:05:26;;;;;;;14.73;11.70;;;8.80;99.90;;;;;;5032690;28;20217;-91
2022/03/14 03:07:56;;;;;;;14.93;12.35;;;8.60;99.90;;;;;;5033042;28;20225;-89
2022/03/14 03:10:23;;;;;;;13.25;11.48;;;8.50;99.90;;;;;;5033405;28;20220;-90
2022/03/14 03:12:52;;;;;;;17.00;11.23;;;8.30;99.90;;;;;;5033152;28;20204;-89
2022/03/14 03:15:19;;;;;;;15.27;12.70;;;8.20;99.90;;;;;;5032927;28;20213;-89
2022/03/14 03:17:46;;;;;;;17.58;12.75;;;8.20;99.90;;;;;;5032109;28;20226;-89
2022/03/14 03:20:14;;;;;;;16.33;13.32;;;8.20;99.90;;;;;;5033311;28;20206;-89
2022/03/14 03:22:41;;;;;;;15.30;12.00;;;8.10;99.90;;;;;;5032809;28;20212;-90
2022/03/14 03:25:08;;;;;;;15.60;12.40;;;8.10;99.90;;;;;;5033161;28;20225;-90
2022/03/14 03:27:35;;;;;;;17.10;12.88;;;8.00;99.90;;;;;;5032682;28;20244;-90
2022/03/14 03:30:05;;;;;;;14.40;11.57;;;8.10;99.90;;;;;;5033170;28;20212;-91
2022/03/14 03:32:32;;;;;;;14.05;10.70;;;8.00;99.90;;;;;;5032856;28;20204;-89
2022/03/14 03:34:59;;;;;;;11.55;9.07;;;8.10;99.90;;;;;;5032596;28;20205;-90
2022/03/14 03:37:25;;;;;;;10.90;8.05;;;8.10;99.90;;;;;;5032306;28;20217;-90
2022/03/14 03:39:52;;;;;;;8.52;7.00;;;8.10;99.90;;;;;;5032701;28;20217;-90
2022/03/14 03:42:19;;;;;;;6.95;5.85;;;8.10;99.90;;;;;;5032435;28;20586;-90
2022/03/14 03:44:46;;;;;;;6.45;5.47;;;8.00;99.90;;;;;;5032803;28;20205;-90
2022/03/14 03:47:14;;;;;;;8.20;6.57;;;8.00;99.90;;;;;;5032313;28;20317;-89
2022/03/14 03:49:40;;;;;;;7.68;5.97;;;7.90;99.90;;;;;;5032570;28;20209;-90
2022/03/14 03:52:08;;;;;;;8.35;6.15;;;7.80;99.90;;;;;;5033887;28;20204;-90
2022/03/14 03:54:35;;;;;;;7.85;6.40;;;7.80;99.90;;;;;;5032942;28;20687;-89
2022/03/14 03:57:02;;;;;;;6.78;6.00;;;7.80;99.90;;;;;;5032633;28;20213;-89
2022/03/14 03:59:29;;;;;;;6.97;5.97;;;7.80;99.90;;;;;;5033130;28;20210;-90
2022/03/14 04:01:56;;;;;;;7.00;5.45;;;7.80;99.90;;;;;;5033513;28;20270;-90
2022/03/14 04:04:25;;;;;;;5.43;4.93;;;7.80;99.90;;;;;;5033187;28;20289;-90
2022/03/14 04:06:54;;;;;;;6.57;4.63;;;7.80;99.90;;;;;;5032518;28;20225;-90
2022/03/14 04:09:21;;;;;;;4.85;3.63;;;7.70;99.90;;;;;;5033008;28;20202;-89
2022/03/14 04:11:48;;;;;;;3.50;3.20;;;7.70;99.90;;;;;;5032887;28;20202;-90
2022/03/14 04:14:15;;;;;;;3.63;3.30;;;7.70;99.90;;;;;;5033880;28;20201;-90
2022/03/14 04:16:42;;;;;;;4.10;3.67;;;7.70;99.90;;;;;;5110431;22;20225;-92
2022/03/14 04:19:09;;;;;;;5.00;3.10;;;7.70;99.90;;;;;;5033840;28;20244;-91
2022/03/14 04:21:38;;;;;;;4.25;3.42;;;7.50;99.90;;;;;;5035940;28;20202;-92
2022/03/14 04:24:07;;;;;;;3.97;2.60;;;7.50;99.90;;;;;;5035624;28;20240;-92
2022/03/14 04:26:34;;;;;;;3.63;2.78;;;7.40;99.90;;;;;;5036435;28;20245;-92
2022/03/14 04:29:01;;;;;;;2.58;2.38;;;7.40;99.90;;;;;;5035270;28;20202;-91
2022/03/14 04:34:17;;;;;;;2.30;1.95;;;7.30;99.90;;;;;;5031543;28;20207;-91
2022/03/14 04:36:49;;;;;;;2.33;1.85;;;7.20;99.90;;;;;;5033535;28;20203;-90
2022/03/14 04:39:15;;;;;;;2.10;1.88;;;7.30;99.90;;;;;;5034541;28;20206;-92
2022/03/14 04:41:43;;;;;;;2.60;1.95;;;7.30;99.90;;;;;;5035392;28;20213;-91
2022/03/14 04:44:10;;;;;;;1.70;1.55;;;7.30;99.90;;;;;;5036302;28;20206;-90
2022/03/14 04:46:37;;;;;;;1.85;1.50;;;7.40;99.90;;;;;;5037684;28;20217;-89
2022/03/14 04:49:05;;;;;;;2.08;1.35;;;7.40;99.90;;;;;;5038676;28;20224;-91
2022/03/14 04:51:32;;;;;;;2.30;1.30;;;7.40;99.90;;;;;;5039527;28;20233;-91
2022/03/14 04:54:00;;;;;;;1.73;1.25;;;7.40;99.90;;;;;;5040305;28;20268;-92
2022/03/14 04:56:27;;;;;;;1.35;1.13;;;7.40;99.90;;;;;;5043772;28;20586;-91
2022/03/14 04:58:54;;;;;;;1.25;1.00;;;7.40;99.90;;;;;;5061163;22;20247;-70
2022/03/14 05:01:23;;;;;;;1.55;1.20;;;7.40;99.90;;;;;;5053870;28;20561;-70
2022/03/14 05:03:52;;;;;;;1.83;1.45;;;7.40;99.90;;;;;;5053316;28;20205;-70
2022/03/14 05:06:19;;;;;;;1.80;1.45;;;7.40;99.90;;;;;;5053587;28;20259;-70
2022/03/14 05:08:46;;;;;;;1.42;1.33;;;7.50;99.90;;;;;;5052853;28;20201;-70
2022/03/14 05:11:14;;;;;;;1.30;1.20;;;7.50;99.90;;;;;;5053838;28;20225;-69
2022/03/14 05:13:41;;;;;;;5.80;1.60;;;7.50;99.90;;;;;;5053644;28;20292;-69
2022/03/14 05:16:08;;;;;;;1.40;1.30;;;7.50;99.90;;;;;;5053266;28;20585;-70
2022/03/14 05:18:35;;;;;;;1.52;1.20;;;7.40;99.90;;;;;;5053089;28;20197;-70
2022/03/14 05:21:02;;;;;;;1.25;1.10;;;7.40;99.90;;;;;;5053143;28;20208;-69
2022/03/14 05:23:29;;;;;;;1.70;1.58;;;7.30;99.90;;;;;;5052894;28;20455;-72
2022/03/14 05:25:55;;;;;;;2.22;1.48;;;7.30;99.90;;;;;;5052425;28;20237;-72
2022/03/14 05:28:24;;;;;;;1.30;1.20;;;7.20;99.90;;;;;;5052199;28;20201;-72
2022/03/14 05:30:50;;;;;;;1.30;1.20;;;7.10;99.90;;;;;;5014722;28;20679;-72
2022/03/14 05:33:17;;;;;;;1.65;1.20;;;7.10;99.90;;;;;;5012995;28;20199;-72
2022/03/14 05:35:44;;;;;;;1.20;1.10;;;7.00;99.90;;;;;;5013298;28;20264;-72
2022/03/14 05:38:11;;;;;;;1.90;1.60;;;7.00;99.90;;;;;;5012531;28;20221;-72
2022/03/14 05:40:37;;;;;;;1.20;1.10;;;6.90;99.90;;;;;;5013486;28;20199;-71
2022/03/14 05:43:07;;;;;;;1.50;1.38;;;6.90;99.90;;;;;;5012974;28;20569;-71
2022/03/14 05:45:36;;;;;;;1.40;1.20;;;6.90;99.90;;;;;;5013874;28;20230;-72
2022/03/14 05:48:03;;;;;;;1.30;1.20;;;6.90;99.90;;;;;;5012900;28;20233;-71
2022/03/14 05:50:30;;;;;;;1.30;1.20;;;6.90;99.90;;;;;;5013319;28;20213;-71
2022/03/14 05:52:56;;;;;;;1.30;1.20;;;6.90;99.90;;;;;;5013263;28;20573;-71
2022/03/14 05:55:23;;;;;;;2.05;1.48;;;6.90;99.90;;;;;;5012891;28;20230;-71
2022/03/14 05:57:50;;;;;;;1.60;1.50;;;6.90;99.90;;;;;;5012540;28;20198;-71
2022/03/14 06:00:19;;;;;;;1.35;1.23;;;6.90;99.90;;;;;;5013159;28;20211;-71
2022/03/14 06:02:48;;;;;;;1.20;1.10;;;6.90;99.90;;;;;;5013179;28;20205;-71
2022/03/14 06:05:15;;;;;;;1.27;1.10;;;6.90;99.90;;;;;;5012792;28;20225;-71
2022/03/14 06:07:42;;;;;;;1.77;1.35;;;6.90;99.90;;;;;;5012353;28;20230;-71
2022/03/14 06:10:09;;;;;;;1.48;1.30;;;6.90;99.90;;;;;;5012841;28;20210;-71
2022/03/14 06:12:36;;;;;;;1.40;1.30;;;6.90;99.90;;;;;;5013154;28;20249;-71
2022/03/14 06:15:12;;;;;;;1.17;1.00;;;6.90;99.90;;;;;;5012739;28;20222;-72
2022/03/14 06:17:40;;;;;;;1.38;1.20;;;6.90;99.90;;;;;;5012289;28;20565;-72
2022/03/14 06:20:10;;;;;;;1.20;1.00;;;6.90;99.90;;;;;;5012947;28;20681;-72
2022/03/14 06:22:41;;;;;;;1.10;1.00;;;6.90;99.90;;;;;;5012764;28;20207;-72
2022/03/14 06:25:09;;;;;;;1.40;1.15;;;7.00;99.90;;;;;;5012781;28;20222;-71
2022/03/14 06:27:37;;;;;;;1.65;1.38;;;7.10;99.90;;;;;;5012163;28;20222;-71
2022/03/14 06:30:05;;;;;;;1.30;1.15;;;7.00;99.90;;;;;;5012524;28;20297;-71
2022/03/14 06:32:36;;;;;;;1.40;1.30;;;7.00;99.90;;;;;;5012384;28;20652;-71
2022/03/14 06:35:04;;;;;;;1.67;1.20;;;6.90;99.90;;;;;;5012540;28;20226;-71
2022/03/14 06:37:32;;;;;;;1.73;1.30;;;6.80;99.90;;;;;;5011863;28;20199;-71
2022/03/14 06:39:59;;;;;;;1.58;1.20;;;6.80;99.90;;;;;;5013142;28;20206;-71
2022/03/14 06:42:26;;;;;;;1.90;1.40;;;6.80;99.90;;;;;;5012496;28;20213;-72
2022/03/14 06:44:53;;;;;;;1.85;1.30;;;6.70;99.90;;;;;;5012091;28;20230;-72
2022/03/14 06:47:21;;;;;;;1.30;1.17;;;6.70;99.90;;;;;;5012057;28;20582;-72
2022/03/14 06:49:50;;;;;;;1.48;1.10;;;6.70;99.90;;;;;;5012052;28;20628;-72
2022/03/14 06:52:17;;;;;;;2.20;1.40;;;6.80;99.90;;;;;;5012549;28;20203;-72
2022/03/14 06:54:45;;;;;;;1.67;1.20;;;6.80;99.90;;;;;;5012154;28;20223;-72
2022/03/14 06:57:12;;;;;;;1.65;1.38;;;6.80;99.90;;;;;;5011744;28;20294;-72
2022/03/14 06:59:39;;;;;;;3.45;1.30;;;7.00;99.90;;;;;;5011472;28;20681;-72
2022/03/14 07:02:07;;;;;;;2.45;1.20;;;7.10;99.90;;;;;;5012466;28;20225;-72
2022/03/14 07:04:36;;;;;;;2.53;1.40;;;7.30;99.90;;;;;;5012304;28;20234;-72
2022/03/14 07:07:04;;;;;;;2.72;1.35;;;7.70;99.90;;;;;;5011231;28;20230;-72
2022/03/14 07:09:31;;;;;;;1.30;1.15;;;8.20;99.90;;;;;;5012436;28;20216;-72
2022/03/14 07:11:59;;;;;;;1.85;1.08;;;8.40;99.90;;;;;;5011759;28;20260;-72
2022/03/14 07:14:26;;;;;;;1.40;1.00;;;8.40;99.90;;;;;;5011601;28;20571;-72
2022/03/14 07:16:53;;;;;;;1.02;0.90;;;8.40;99.90;;;;;;5010938;28;20378;-72
2022/03/14 07:19:20;;;;;;;1.45;0.95;;;8.50;99.90;;;;;;5011568;28;20293;-72
2022/03/14 07:21:47;;;;;;;1.00;0.80;;;9.00;99.90;;;;;;5011370;28;20203;-72
2022/03/14 07:24:13;;;;;;;0.98;0.80;;;9.60;99.90;;;;;;5011488;28;20225;-72
2022/03/14 07:26:40;;;;;;;1.00;0.90;;;9.90;99.90;;;;;;5011011;28;20640;-71
2022/03/14 07:29:08;;;;;;;1.30;1.15;;;10.20;99.90;;;;;;5011134;28;20202;-72
2022/03/14 07:31:37;;;;;;;2.95;0.90;;;11.00;99.90;;;;;;5011249;28;20202;-72
2022/03/14 07:34:03;;;;;;;0.90;0.80;;;11.30;99.90;;;;;;5011459;28;20214;-73
2022/03/14 07:36:32;;;;;;;1.30;0.90;;;11.30;99.90;;;;;;5011457;28;20238;-72
2022/03/14 07:38:59;;;;;;;1.77;1.20;;;11.70;99.90;;;;;;5011144;28;20217;-72
2022/03/14 07:41:26;;;;;;;1.85;0.90;;;12.30;98.80;;;;;;5011643;28;20519;-72
2022/03/14 07:43:53;;;;;;;1.40;0.93;;;12.20;98.40;;;;;;5010917;28;20693;-72
2022/03/14 07:46:21;;;;;;;1.10;1.00;;;12.50;97.50;;;;;;5011275;28;20480;-72
2022/03/14 07:48:48;;;;;;;1.57;1.00;;;12.70;97.40;;;;;;5010469;28;21027;-72
2022/03/14 07:51:16;;;;;;;1.10;0.93;;;13.00;97.40;;;;;;5011352;28;20466;-72
2022/03/14 07:53:42;;;;;;;1.03;0.87;;;13.50;96.00;;;;;;5011193;28;20465;-72
2022/03/14 07:56:11;;;;;;;1.10;0.80;;;13.60;96.00;;;;;;5023923;28;20874;-72
2022/03/14 07:58:38;;;;;;;1.10;1.00;;;13.90;95.10;;;;;;5027715;28;20464;-72
2022/03/14 08:01:04;;;;;;;1.20;1.00;;;14.10;95.10;;;;;;5028116;28;21149;-72
2022/03/14 08:03:32;;;;;;;1.40;1.07;;;14.50;95.50;;;;;;5028088;28;20460;-72
2022/03/14 08:06:00;;;;;;;1.13;1.00;;;15.00;93.00;;;;;;5028330;28;21121;-75
2022/03/14 08:08:27;;;;;;;1.13;0.87;;;14.30;92.50;;;;;;5027781;28;20856;-72
2022/03/14 08:10:54;;;;;;;1.30;1.07;;;13.30;93.70;;;;;;5027868;28;20469;-72
2022/03/14 08:13:21;;;;;;;2.27;1.53;;;13.30;94.70;;;;;;5027956;28;20487;-72
2022/03/14 08:15:48;;;;;;;1.90;1.30;;;13.10;94.30;;;;;;5028403;28;20516;-72
2022/03/14 08:18:15;;;;;;;2.60;1.10;;;13.00;94.00;;;;;;5022484;28;20829;-72
2022/03/14 08:20:43;;;;;;;1.73;1.30;;;13.50;92.90;;;;;;5024218;28;20974;-72
2022/03/14 08:23:10;;;;;;;1.37;1.10;;;13.90;92.70;;;;;;5029511;28;20467;-74
2022/03/14 08:25:37;;;;;;;2.53;1.10;;;14.50;92.40;;;;;;5024135;28;20487;-71
2022/03/14 08:28:04;;;;;;;3.93;1.17;;;15.20;90.60;;;;;;5032302;28;20483;-71
2022/03/14 08:30:31;;;;;;;2.83;1.40;;;15.40;90.40;;;;;;5032641;28;20472;-71
2022/03/14 08:32:59;;;;;;;3.67;1.83;;;15.90;90.70;;;;;;5033822;28;20464;-73
2022/03/14 08:35:28;;;;;;;1.43;1.17;;;15.60;87.30;;;;;;5032635;28;20511;-70
2022/03/14 08:37:57;;;;;;;2.23;1.50;;;14.70;89.90;;;;;;5040148;28;20551;-71
2022/03/14 08:40:26;;;;;;;3.83;1.20;;;13.50;91.10;;;;;;5052010;28;20538;-71
2022/03/14 08:42:54;;;;;;;2.03;1.00;;;12.50;92.60;;;;;;5052929;28;20463;-71
2022/03/14 08:45:22;;;;;;;3.20;1.47;;;11.80;93.30;;;;;;5046817;28;20476;-72
2022/03/14 08:47:49;;;;;;;2.10;1.00;;;11.20;93.30;;;;;;5031660;28;20507;-72
2022/03/14 08:50:17;;;;;;;1.90;1.10;;;10.80;94.10;;;;;;5033172;28;20468;-72
2022/03/14 08:52:45;;;;;;;1.27;1.10;;;10.60;94.40;;;;;;5033230;28;20202;-72
2022/03/14 08:55:14;;;;;;;3.08;1.10;;;10.80;94.60;;;;;;5033025;28;20241;-73
2022/03/14 08:57:41;;;;;;;3.10;2.00;;;11.10;94.70;;;;;;5033090;28;20673;-73
2022/03/14 09:00:10;;;;;;;1.50;1.30;;;11.30;94.00;;;;;;5033231;28;20202;-72
2022/03/14 09:02:37;;;;;;;1.40;1.00;;;11.90;93.90;;;;;;5033662;28;20455;-72
2022/03/14 09:05:05;;;;;;;2.65;1.27;;;12.90;93.00;;;;;;5032736;28;20488;-72
2022/03/14 09:07:32;;;;;;;1.50;1.10;;;13.20;90.70;;;;;;5032928;28;20217;-72
2022/03/14 09:10:03;;;;;;;2.27;1.03;;;13.40;90.70;;;;;;5032579;28;20894;-72
2022/03/14 09:12:33;;;;;;;3.57;1.10;;;13.70;90.00;;;;;;5033261;28;20460;-72
2022/03/14 09:15:00;;;;;;;3.73;2.10;;;15.10;88.20;;;;;;5032902;28;21149;-72
2022/03/14 09:17:28;;;;;;;7.23;1.83;;;16.50;85.30;;;;;;5029097;28;20460;-72
2022/03/14 09:19:55;;;;;;;3.27;1.57;;;17.70;81.30;;;;;;5031985;28;20460;-72
2022/03/14 09:22:22;;;;;;;2.73;1.57;;;18.50;76.10;;;;;;5032742;28;20464;-73
2022/03/14 09:24:49;;;;;;;1.60;1.17;;;18.90;76.50;;;;;;5032524;28;20538;-72
2022/03/14 09:27:16;;;;;;;2.73;1.70;;;18.40;74.00;;;;;;5032072;28;20843;-73
2022/03/14 09:29:45;;;;;;;3.10;1.60;;;17.20;75.70;;;;;;5031017;28;20464;-72
2022/03/14 09:32:13;;;;;;;4.27;1.70;;;16.90;77.90;;;;;;5033100;28;20483;-72
2022/03/14 09:34:40;;;;;;;2.47;1.60;;;17.90;75.70;;;;;;5031435;28;20491;-73
2022/03/14 09:37:07;;;;;;;2.43;1.30;;;19.10;74.40;;;;;;5032407;28;20464;-73
2022/03/14 09:39:34;;;;;;;4.37;1.80;;;20.30;70.60;;;;;;5031671;28;20475;-72
2022/03/14 09:42:02;;;;;;;1.90;1.50;;;20.20;71.10;;;;;;5031520;28;20468;-72
2022/03/14 09:44:30;;;;;;;3.53;1.43;;;19.60;70.20;;;;;;5032185;28;21033;-73
2022/03/14 09:47:01;;;;;;;3.43;1.53;;;20.00;71.40;;;;;;5030492;28;20931;-73
2022/03/14 09:49:30;;;;;;;1.93;1.37;;;21.00;69.40;;;;;;5031366;28;20485;-72
2022/03/14 09:51:57;;;;;;;2.53;1.30;;;20.40;70.60;;;;;;5031727;28;20471;-73
2022/03/14 09:54:24;;;;;;;4.07;1.50;;;20.30;71.70;;;;;;5031031;28;20480;-72
2022/03/14 09:56:51;;;;;;;2.27;1.63;;;21.00;70.40;;;;;;5030577;28;20872;-72
2022/03/14 09:59:20;;;;;;;3.03;1.60;;;21.70;68.40;;;;;;5030918;28;20475;-73
2022/03/14 10:01:48;;;;;;;1.93;1.30;;;21.10;67.40;;;;;;5031881;28;20492;-73
2022/03/14 10:04:16;;;;;;;1.93;1.23;;;20.00;68.30;;;;;;5030917;28;21017;-73
2022/03/14 10:06:44;;;;;;;3.37;1.37;;;19.80;69.60;;;;;;5031387;28;20471;-72
2022/03/14 10:09:11;;;;;;;1.70;1.10;;;19.50;68.30;;;;;;5030695;28;20512;-71
2022/03/14 10:11:38;;;;;;;3.30;1.87;;;19.40;68.20;;;;;;5030297;28;20459;-71
2022/03/14 10:14:05;;;;;;;3.23;1.30;;;18.40;69.10;;;;;;5031615;28;20469;-72
2022/03/14 10:16:33;;;;;;;2.50;1.43;;;18.80;71.40;;;;;;5031507;28;20472;-72
2022/03/14 10:19:02;;;;;;;2.57;1.77;;;19.90;68.70;;;;;;5030059;28;20878;-72
2022/03/14 10:21:35;;;;;;;4.13;1.60;;;21.10;67.10;;;;;;5031385;28;20461;-72
2022/03/14 10:24:04;;;;;;;3.20;1.23;;;22.10;65.10;;;;;;5029995;28;20467;-72
2022/03/14 10:26:33;;;;;;;2.73;1.13;;;23.00;66.40;;;;;;5030069;28;20486;-72
2022/03/14 10:29:01;;;;;;;3.00;1.47;;;23.90;63.40;;;;;;5031022;28;20499;-72
2022/03/14 10:31:29;;;;;;;2.80;1.50;;;23.70;60.70;;;;;;5030579;28;20460;-72
2022/03/14 10:34:04;;;;;;;2.00;1.30;;;21.60;62.50;;;;;;5029906;28;20884;-72
2022/03/14 10:36:46;;;;;;;1.53;1.20;;;20.70;65.90;;;;;;5030090;28;20507;-72
2022/03/14 10:39:15;;;;;;;2.63;1.20;;;20.60;65.10;;;;;;5030517;28;20457;-71
2022/03/14 10:41:42;;;;;;;2.00;1.50;;;20.30;65.30;;;;;;5029568;28;20464;-72
2022/03/14 10:44:09;;;;;;;2.97;1.50;;;20.10;66.00;;;;;;5031362;28;20476;-73
2022/03/14 10:46:39;;;;;;;2.53;1.73;;;20.20;66.30;;;;;;5029848;28;20449;-72
2022/03/14 10:49:09;;;;;;;2.30;1.40;;;20.50;64.10;;;;;;5029061;28;20523;-72
2022/03/14 10:51:53;;;;;;;4.17;1.60;;;21.90;64.40;;;;;;5033353;28;20471;-73
2022/03/14 10:54:20;;;;;;;2.13;1.47;;;21.20;62.20;;;;;;5030376;28;20519;-72
2022/03/14 10:57:04;;;;;;;3.10;1.60;;;19.90;64.10;;;;;;5029397;28;20475;-72
2022/03/14 10:59:39;;;;;;;2.90;1.60;;;19.90;64.00;;;;;;5029533;28;20464;-72
2022/03/14 11:02:09;;;;;;;2.30;1.30;;;19.70;65.80;;;;;;5030176;28;20467;-73
2022/03/14 11:04:43;;;;;;;1.50;1.20;;;20.70;64.90;;;;;;5029280;28;20550;-73
2022/03/14 11:07:13;;;;;;;3.60;1.60;;;22.30;63.90;;;;;;5029693;28;20483;-72
2022/03/14 11:09:44;;;;;;;2.77;1.60;;;23.00;63.00;;;;;;5029004;28;20484;-72
2022/03/14 11:12:13;;;;;;;2.43;1.40;;;23.50;61.10;;;;;;5029280;28;20460;-72
2022/03/14 11:14:39;;;;;;;2.50;1.40;;;23.40;59.20;;;;;;5030019;28;20487;-72
2022/03/14 11:17:15;;;;;;;2.90;1.77;;;22.90;60.00;;;;;;5029868;28;21031;-72
2022/03/14 11:19:42;;;;;;;1.93;1.23;;;22.20;60.20;;;;;;5029058;28;20506;-72
2022/03/14 11:22:12;;;;;;;2.33;1.30;;;21.80;63.10;;;;;;5030254;28;20467;-73
2022/03/14 11:24:44;;;;;;;2.20;1.30;;;22.60;61.00;;;;;;5028193;28;21054;-72
2022/03/14 11:27:14;;;;;;;1.90;1.40;;;22.90;60.80;;;;;;5029488;28;20460;-72
2022/03/14 11:29:43;;;;;;;3.10;1.40;;;22.20;60.40;;;;;;5029641;28;20527;-72
2022/03/14 11:32:11;;;;;;;1.20;1.00;;;22.30;60.00;;;;;;5029628;28;20506;-72
2022/03/14 11:34:37;;;;;;;2.10;1.27;;;22.40;61.20;;;;;;5029017;28;20480;-72
2022/03/14 11:37:05;;;;;;;2.43;1.30;;;21.80;60.10;;;;;;5028246;28;20872;-72
2022/03/14 11:39:36;;;;;;;4.70;1.50;;;21.00;61.70;;;;;;5029167;28;20496;-72
2022/03/14 11:42:03;;;;;;;1.53;1.30;;;20.50;62.10;;;;;;5029389;28;20952;-72
2022/03/14 11:44:30;;;;;;;2.10;1.20;;;20.00;63.00;;;;;;5029877;28;20484;-72
2022/03/14 11:46:59;;;;;;;3.50;1.57;;;20.20;63.60;;;;;;5037158;28;20455;-72
2022/03/14 11:49:29;;;;;;;2.40;1.50;;;20.50;62.70;;;;;;5033262;28;20488;-72
2022/03/14 11:52:11;;;;;;;2.17;1.17;;;20.30;62.80;;;;;;5029926;28;20464;-73
2022/03/14 11:54:43;;;;;;;2.73;1.43;;;20.40;64.70;;;;;;5028924;28;20472;-72
2022/03/14 11:57:10;;;;;;;2.07;1.30;;;22.00;62.80;;;;;;5029333;28;20495;-72
2022/03/14 11:59:38;;;;;;;4.13;1.53;;;23.80;61.40;;;;;;5028841;28;20475;-73
2022/03/14 12:02:07;;;;;;;2.57;1.50;;;25.00;58.70;;;;;;5028261;28;20456;-72
2022/03/14 12:04:36;;;;;;;2.80;1.50;;;25.90;56.90;;;;;;5029418;28;20475;-72
2022/03/14 12:07:16;;;;;;;1.47;1.07;;;26.70;56.60;;;;;;5028646;28;20468;-73
2022/03/14 12:09:51;;;;;;;1.90;1.70;;;25.80;57.50;;;;;;5028094;28;20490;-73
2022/03/14 12:12:34;;;;;;;2.43;1.50;;;26.10;56.60;;;;;;5028877;28;20550;-73
2022/03/14 12:15:05;;;;;;;1.73;1.20;;;26.10;55.40;;;;;;5029086;28;21041;-73
2022/03/14 12:17:34;;;;;;;2.70;1.57;;;25.80;56.10;;;;;;5028784;28;20461;-72
2022/03/14 12:20:04;;;;;;;3.23;1.93;;;26.00;54.90;;;;;;5028940;28;20828;-71
2022/03/14 12:22:44;;;;;;;2.37;1.20;;;26.00;55.00;;;;;;5029462;28;20495;-72
2022/03/14 12:25:14;;;;;;;2.47;1.30;;;25.50;56.10;;;;;;5027465;28;20538;-72
2022/03/14 12:27:42;;;;;;;2.87;1.53;;;25.80;57.20;;;;;;5028839;28;20460;-71
2022/03/14 12:30:30;;;;;;;4.73;1.63;;;26.40;54.80;;;;;;5029055;28;20527;-71
2022/03/14 12:32:57;;;;;;;2.63;1.60;;;26.50;55.10;;;;;;5029288;28;20821;-71
2022/03/14 12:35:33;;;;;;;3.30;1.40;;;25.60;56.00;;;;;;5028330;28;20482;-72
2022/03/14 12:38:11;;;;;;;2.93;1.50;;;23.40;56.60;;;;;;5027565;28;21395;-72
2022/03/14 12:40:47;;;;;;;2.03;1.23;;;21.40;58.60;;;;;;5028122;28;20459;-71
2022/03/14 12:43:23;;;;;;;4.63;1.40;;;20.00;60.40;;;;;;5029151;28;20460;-74
2022/03/14 12:45:52;;;;;;;2.53;1.30;;;19.20;63.90;;;;;;5028454;28;20512;-71
2022/03/14 12:48:21;;;;;;;3.97;1.43;;;20.00;63.40;;;;;;5027454;28;20464;-72
2022/03/14 12:51:07;;;;;;;3.10;1.50;;;21.50;60.80;;;;;;5028259;28;20975;-71
2022/03/14 12:53:39;;;;;;;2.17;1.50;;;22.10;59.30;;;;;;5049211;22;20500;-90
2022/03/14 12:56:29;;;;;;;2.10;1.30;;;22.10;59.50;;;;;;5043278;28;20437;-96